Terminal Aerodrome Forecast
Issued by NWS Green Bay, WI

Home | Current Version | Previous Version | Graphics & Text | Print | Product List | Glossary On
Versions: 1 2 3 4 5 6 7 8 9 10 11 12 13 14 15 16 17 18 19 20 21 22
000
FTUS43 KGRB 272143 AAB
TAFGRB
TAF AMD
KGRB 272143Z 2722/2818 27009KT P6SM -SHRA SCT025 OVC050
      TEMPO 2722/2724 BKN025
     FM280000 27011KT P6SM -SHRA BKN030
     FM280500 29006KT P6SM -SHRA BKN025
     FM281000 01010KT P6SM -SHRA OVC012
     FM281500 03014G25KT P6SM VCSH OVC015=

USA.gov is the U.S. government's official web portal to all federal, state and local government web resources and services.